EW3529 Weather Reports


time (UTC)temp
F
wind
direction
speed
knots
gust
knots
rain 1hr
in
rain 24hr
in
rain mn
in
humidity
%
barometer
mb
20260508012909 50 254 2.6 4.3 0.00 0.16 0.01 87 1011.1
20260508012409 50 196 1.7 2.6 0.00 0.16 0.01 86 1011.1
20260508011909 51 196 2.6 2.6 0.00 0.16 0.01 86 1010.9
20260508011409 51 196 1.7 2.6 0.00 0.16 0.01 86 1010.9
20260508010909 52 196 2.6 2.6 0.00 0.16 0.01 86 1010.9
20260508010409 52 196 2.6 4.3 0.00 0.16 0.01 85 1010.9
20260508005909 52 196 1.7 4.3 0.00 0.16 0.01 85 1010.8
20260508005410 53 196 1.7 4.3 0.00 0.16 0.01 86 1010.5
20260508004909 53 196 0.0 4.3 0.00 0.16 0.01 85 1010.5
20260508004410 54 196 2.6 6.1 0.00 0.16 0.01 85 1010.5
20260508003908 54 196 3.5 6.1 0.00 0.16 0.01 84 1010.4
20260508003409 54 188 2.6 6.1 0.00 0.16 0.01 84 1010.4
20260508002908 55 206 1.7 4.3 0.00 0.16 0.01 84 1010.3
20260508002409 55 206 1.7 4.3 0.00 0.16 0.01 83 1010.1
20260508001908 55 206 1.7 6.1 0.00 0.16 0.01 82 1010.1
20260508001409 56 206 4.3 6.1 0.00 0.16 0.01 82 1010.0
20260508000908 56 206 5.2 6.1 0.00 0.16 0.01 81 1009.8
20260508000412 57 221 1.7 5.2 0.00 0.16 0.01 80 1009.8
20260507235909 57 190 0.9 6.1 0.00 0.16 0.01 79 1009.6
20260507235409 58 198 4.3 6.1 0.00 0.16 0.01 79 1009.6
20260507234908 58 198 2.6 7.8 0.00 0.16 0.01 78 1009.7
20260507234409 59 210 2.6 7.8 0.00 0.16 0.01 78 1009.6
20260507233909 59 188 4.3 8.7 0.00 0.16 0.01 79 1009.5
20260507233410 59 205 5.2 8.7 0.00 0.16 0.01 77 1009.5
20260507232909 60 194 6.1 10.4 0.00 0.16 0.01 77 1009.4
20260507232408 60 194 4.3 10.4 0.00 0.16 0.01 76 1009.3
20260507231909 61 193 4.3 8.7 0.00 0.16 0.01 75 1009.2
20260507231410 61 187 5.2 7.8 0.00 0.16 0.01 75 1009.1
20260507230908 62 187 4.3 7.0 0.00 0.16 0.01 74 1009.1
20260507230409 62 189 4.3 7.8 0.00 0.16 0.01 74 1009.0
20260507225909 62 161 5.2 8.7 0.00 0.16 0.01 72 1008.9
20260507225409 63 186 3.5 8.7 0.00 0.16 0.01 73 1008.9
20260507224909 63 140 4.3 8.7 0.00 0.16 0.01 72 1008.9
20260507224408 63 210 2.6 10.4 0.00 0.16 0.01 73 1008.9
20260507223909 63 171 6.1 10.4 0.00 0.16 0.01 72 1008.7
20260507223409 63 201 7.0 10.4 0.00 0.16 0.01 73 1008.6
20260507222909 63 199 6.1 8.7 0.00 0.16 0.01 74 1008.6
20260507222408 63 180 2.6 7.0 0.00 0.16 0.01 73 1008.5
20260507221909 63 178 4.3 7.8 0.00 0.16 0.01 73 1008.5
20260507221409 63 187 6.1 8.7 0.00 0.16 0.01 73 1008.5
20260507220909 63 165 4.3 10.4 0.00 0.16 0.01 71 1008.5
20260507220409 63 184 4.3 10.4 0.00 0.16 0.01 71 1008.4
20260507215908 63 198 6.1 8.7 0.00 0.16 0.01 73 1008.3
20260507215409 63 198 6.1 10.4 0.00 0.16 0.01 70 1008.3
20260507214908 63 165 3.5 10.4 0.00 0.16 0.01 70 1008.3
20260507214408 64 193 5.2 10.4 0.00 0.16 0.01 71 1008.4
20260507213909 64 123 3.5 10.4 0.00 0.16 0.01 69 1008.4
20260507213408 64 172 5.2 10.4 0.00 0.16 0.01 69 1008.4
20260507212908 64 208 5.2 10.4 0.00 0.16 0.01 71 1008.4
20260507212408 65 162 2.6 11.3 0.00 0.16 0.01 68 1008.4
20260507211908 65 198 7.0 11.3 0.00 0.16 0.01 69 1008.4
20260507211408 64 198 7.0 12.2 0.00 0.16 0.01 68 1008.2
20260507210908 65 215 7.0 12.2 0.00 0.16 0.01 68 1008.2
20260507210408 64 209 7.8 12.2 0.00 0.16 0.01 74 1008.2
20260507205908 64 142 5.2 10.4 0.00 0.16 0.01 70 1008.2
20260507205408 63 193 2.6 10.4 0.00 0.16 0.01 71 1008.2
20260507204908 63 0 0.0 0.0 0.00 0.16 0.01 72 1008.3
20260507204409 62 0 0.0 0.0 0.00 0.16 0.01 74 1008.4
20260507203908 62 0 0.0 0.0 0.00 0.16 0.01 72 1008.4
20260507203408 62 0 0.0 0.0 0.00 0.16 0.01 73 1008.4
20260507202908 62 0 0.0 0.0 0.00 0.16 0.01 71 1008.3
20260507202408 62 0 0.0 0.0 0.00 0.16 0.01 71 1008.5
20260507201907 62 0 0.0 0.0 0.00 0.16 0.01 74 1008.4
20260507201408 62 0 0.0 0.0 0.00 0.16 0.01 73 1008.4
20260507200908 62 0 0.0 0.0 0.00 0.16 0.01 74 1008.6
20260507200408 62 0 0.0 0.0 0.00 0.16 0.01 73 1008.7
20260507195908 62 0 0.0 0.0 0.00 0.16 0.01 72 1008.8
20260507195408 62 0 0.0 0.0 0.00 0.16 0.01 73 1008.8
20260507194907 62 0 0.0 0.0 0.00 0.16 0.01 72 1008.8
20260507194408 62 0 0.0 0.0 0.00 0.16 0.01 70 1008.7
20260507193908 62 0 0.0 0.0 0.00 0.16 0.01 71 1008.9
20260507193408 63 0 0.0 0.0 0.00 0.16 0.01 71 1009.2
20260507192908 63 0 0.0 0.0 0.00 0.16 0.01 74 1009.2
20260507192407 62 0 0.0 0.0 0.00 0.16 0.01 74 1009.4
20260507191908 62 0 0.0 5.2 0.00 0.16 0.01 72 1009.3
20260507191409 62 9 1.7 5.2 0.00 0.16 0.01 72 1009.3
20260507190908 62 202 5.2 8.7 0.00 0.16 0.01 74 1009.3
20260507190408 61 202 5.2 8.7 0.00 0.16 0.01 75 1009.3
20260507185908 61 195 2.6 6.1 0.00 0.16 0.01 70 1009.4
20260507185407 62 173 2.6 6.1 0.00 0.16 0.01 72 1009.6
20260507184908 62 173 3.5 8.7 0.00 0.16 0.01 75 1009.5
20260507184408 62 175 5.2 8.7 0.00 0.16 0.01 74 1009.8
20260507183908 61 149 2.6 8.7 0.00 0.16 0.01 73 1009.8
20260507183408 61 120 3.5 8.7 0.00 0.16 0.01 75 1009.8
20260507182908 61 208 2.6 6.1 0.00 0.16 0.01 75 1009.8
20260507182407 60 161 2.6 7.8 0.00 0.16 0.01 78 1009.8
20260507181907 59 144 1.7 7.8 0.00 0.16 0.01 73 1009.8
20260507181407 59 138 4.3 7.8 0.00 0.16 0.01 77 1009.8
20260507180908 59 119 4.3 6.1 0.00 0.16 0.01 75 1010.0
20260507180408 59 135 2.6 7.0 0.01 0.16 0.01 77 1010.1
20260507175908 59 73 0.9 7.0 0.01 0.16 0.01 76 1010.3
20260507175408 58 115 1.7 7.0 0.01 0.16 0.01 79 1010.3
20260507174908 58 113 1.7 6.1 0.01 0.16 0.01 82 1010.2
20260507174408 57 132 1.7 5.2 0.01 0.16 0.01 80 1010.4
20260507173908 57 114 1.7 5.2 0.01 0.16 0.01 81 1010.4
20260507173407 56 112 1.7 5.2 0.01 0.16 0.01 79 1010.4
20260507172908 56 95 3.5 6.1 0.01 0.16 0.01 80 1010.5
20260507172407 56 96 3.5 6.1 0.01 0.16 0.01 82 1010.8
20260507171907 56 68 2.6 7.0 0.01 0.16 0.01 83 1010.9
20260507171407 55 68 5.2 7.0 0.01 0.16 0.01 82 1010.8
20260507170907 55 134 4.3 7.0 0.01 0.16 0.01 82 1011.0
20260507170408 55 81 2.6 7.0 0.00 0.15 0.00 83 1011.0
20260507165907 55 111 0.9 6.1 0.00 0.15 0.00 84 1011.1
20260507165408 55 86 3.5 7.8 0.00 0.15 0.00 83 1011.1
20260507164908 55 85 6.1 7.8 0.00 0.15 0.00 83 1011.1
20260507164408 55 76 4.3 7.8 0.00 0.15 0.00 83 1011.1
20260507163908 55 53 4.3 10.4 0.00 0.15 0.00 83 1011.3
20260507163408 55 70 4.3 10.4 0.00 0.15 0.00 83 1011.3
20260507162908 55 60 5.2 11.3 0.00 0.15 0.00 84 1011.4
20260507162408 55 79 8.7 11.3 0.00 0.15 0.00 85 1011.4
20260507161907 55 74 7.0 11.3 0.00 0.15 0.00 84 1011.7
20260507161407 55 54 4.3 12.2 0.00 0.15 0.00 85 1011.6
20260507160907 55 62 8.7 12.2 0.00 0.15 0.00 86 1011.8
20260507160408 54 72 9.6 12.2 0.00 0.15 0.00 87 1011.8
20260507155908 54 77 7.8 10.4 0.00 0.15 0.00 88 1011.9
20260507155408 53 72 8.7 10.4 0.00 0.15 0.00 87 1011.9
20260507154907 53 57 4.3 8.7 0.00 0.15 0.00 87 1012.0
20260507154407 53 42 2.6 10.4 0.00 0.15 0.00 88 1012.1
20260507153908 53 64 6.1 10.4 0.00 0.15 0.00 88 1012.1
20260507153407 53 75 6.1 10.4 0.00 0.15 0.00 88 1012.0
20260507152907 53 62 6.1 10.4 0.00 0.15 0.00 89 1012.1
20260507152407 53 42 5.2 10.4 0.00 0.15 0.00 89 1012.1
20260507151908 53 70 6.1 10.4 0.00 0.15 0.00 89 1012.2
20260507151408 53 43 5.2 10.4 0.00 0.15 0.00 89 1012.2
20260507150908 53 57 6.1 10.4 0.00 0.15 0.00 92 1012.0
20260507150408 53 43 5.2 10.4 0.00 0.15 0.00 89 1012.0
20260507145907 53 33 6.1 11.3 0.00 0.15 0.00 89 1012.0
20260507145408 53 39 8.7 11.3 0.00 0.15 0.00 89 1012.0
20260507144908 53 44 7.8 11.3 0.00 0.15 0.00 89 1012.1
20260507144407 53 29 7.8 11.3 0.00 0.15 0.00 89 1012.1
20260507143907 53 42 4.3 10.4 0.00 0.15 0.00 89 1012.4
20260507143407 53 53 7.8 8.7 0.00 0.15 0.00 89 1012.4
20260507142907 53 52 4.3 7.0 0.00 0.15 0.00 89 1012.5
20260507142407 53 28 5.2 7.0 0.00 0.15 0.00 90 1012.5
20260507141907 53 53 4.3 8.7 0.00 0.15 0.00 90 1012.5
20260507141407 53 45 4.3 8.7 0.00 0.15 0.00 90 1012.5
20260507140907 53 36 6.1 8.7 0.00 0.15 0.00 90 1012.6
20260507140407 52 34 6.1 7.8 0.00 0.15 0.00 90 1012.6
20260507135907 52 29 5.2 7.8 0.00 0.15 0.00 90 1012.6
20260507135407 52 43 6.1 7.8 0.00 0.15 0.00 90 1012.6
20260507134907 52 36 6.1 10.4 0.00 0.15 0.00 90 1012.7
20260507134407 53 30 5.2 10.4 0.00 0.15 0.00 90 1012.7
20260507133907 53 46 6.1 8.7 0.00 0.15 0.00 90 1012.7
20260507133407 53 36 6.1 7.8 0.00 0.15 0.00 90 1012.7
20260507132907 52 37 4.3 8.7 0.00 0.15 0.00 90 1012.7
20260507132407 52 27 5.2 8.7 0.00 0.15 0.00 90 1012.6
20260507131907 52 34 7.0 8.7 0.00 0.15 0.00 90 1012.7
20260507131408 52 35 5.2 8.7 0.00 0.15 0.00 91 1012.7
20260507130907 53 43 6.1 8.7 0.00 0.15 0.00 91 1012.6
20260507130406 52 31 4.3 7.8 0.00 0.15 0.00 91 1012.6
20260507125907 52 29 5.2 7.8 0.00 0.15 0.00 91 1012.7
20260507125406 53 36 5.2 8.7 0.00 0.15 0.00 91 1012.7
20260507124907 52 37 5.2 8.7 0.00 0.15 0.00 91 1012.7
20260507124407 52 31 4.3 8.7 0.00 0.15 0.00 91 1012.7
20260507123907 52 42 3.5 8.7 0.00 0.15 0.00 90 1012.6
20260507123407 52 28 6.1 8.7 0.00 0.17 0.00 90 1012.6
20260507122907 52 39 5.2 7.8 0.00 0.18 0.00 91 1012.5
20260507122407 52 30 5.2 7.8 0.00 0.18 0.00 90 1012.7
20260507121907 52 29 5.2 8.7 0.00 0.18 0.00 90 1012.3
20260507121406 52 40 6.1 8.7 0.00 0.18 0.00 91 1012.3
20260507120906 52 52 5.2 6.1 0.00 0.19 0.00 90 1012.3
20260507120407 52 30 3.5 6.1 0.00 0.19 0.00 90 1012.3
20260507115907 52 38 1.7 6.1 0.00 0.19 0.00 90 1012.3
20260507115407 52 21 2.6 7.0 0.00 0.19 0.00 90 1012.4
20260507114907 52 31 4.3 7.0 0.00 0.19 0.00 90 1012.3
20260507114407 52 43 5.2 6.1 0.00 0.19 0.00 90 1012.3
20260507113907 52 47 4.3 7.8 0.00 0.19 0.00 90 1012.3
20260507113407 52 47 3.5 7.8 0.00 0.19 0.00 90 1012.3
20260507112907 52 25 4.3 7.8 0.00 0.20 0.00 90 1012.1
20260507112406 52 41 5.2 7.8 0.00 0.20 0.00 90 1012.1
20260507111907 52 45 5.2 7.8 0.00 0.20 0.00 90 1012.1
20260507111407 52 28 5.2 7.8 0.00 0.20 0.00 90 1012.1
20260507110907 52 36 4.3 10.4 0.00 0.20 0.00 90 1012.0
20260507110407 52 29 6.1 10.4 0.00 0.20 0.00 90 1011.9
20260507105906 52 34 5.2 10.4 0.00 0.20 0.00 90 1011.9
20260507105407 52 38 5.2 7.8 0.00 0.20 0.00 90 1011.9
20260507104907 52 52 5.2 10.4 0.00 0.20 0.00 90 1011.7
20260507104407 52 45 7.0 10.4 0.00 0.20 0.00 90 1011.6
20260507103907 52 27 5.2 10.4 0.00 0.20 0.00 90 1011.7
20260507103407 52 27 6.1 10.4 0.00 0.20 0.00 90 1011.4
20260507102907 52 41 7.0 11.3 0.00 0.20 0.00 90 1011.5
20260507102407 52 48 7.8 11.3 0.00 0.20 0.00 90 1011.5
20260507101907 52 43 7.0 10.4 0.00 0.20 0.00 90 1011.5
20260507101406 52 40 6.1 10.4 0.00 0.20 0.00 90 1011.6
20260507100907 52 39 6.1 10.4 0.00 0.20 0.00 90 1011.6
20260507100407 52 42 7.0 12.2 0.00 0.20 0.00 90 1011.7
20260507095907 52 45 8.7 12.2 0.00 0.20 0.00 90 1011.7
20260507095407 52 34 7.8 11.3 0.00 0.20 0.00 90 1011.6
20260507094907 52 42 7.8 13.9 0.00 0.20 0.00 90 1011.6
20260507094407 52 37 7.8 13.9 0.00 0.20 0.00 90 1011.6
20260507093906 52 33 8.7 12.2 0.00 0.20 0.00 90 1011.5
20260507093406 52 37 7.8 12.2 0.00 0.20 0.00 90 1011.5
20260507092907 52 32 8.7 12.2 0.00 0.20 0.00 90 1011.1
20260507092406 52 26 7.8 12.2 0.00 0.20 0.00 90 1011.1
20260507091906 53 41 6.1 11.3 0.00 0.20 0.00 90 1011.1
20260507091406 53 57 7.0 11.3 0.00 0.20 0.00 90 1011.1
20260507090906 53 42 7.8 11.3 0.00 0.20 0.00 90 1011.2
20260507090407 53 41 6.1 11.3 0.00 0.20 0.00 90 1011.3
20260507085907 53 52 7.8 12.2 0.00 0.20 0.00 89 1011.4
20260507085406 53 54 6.1 12.2 0.00 0.20 0.00 89 1011.2
20260507084906 53 41 6.1 8.7 0.00 0.20 0.00 89 1011.1
20260507084406 53 41 5.2 10.4 0.00 0.20 0.00 89 1011.3
20260507083907 54 34 7.0 10.4 0.00 0.20 0.00 89 1010.9
20260507083406 54 44 6.1 10.4 0.00 0.20 0.00 89 1010.9
20260507082907 54 44 6.1 10.4 0.00 0.20 0.00 89 1010.9
20260507082406 54 45 7.0 10.4 0.00 0.20 0.00 89 1010.9
20260507081906 54 45 6.1 10.4 0.00 0.20 0.00 89 1011.1
20260507081406 54 21 5.2 10.4 0.00 0.20 0.00 89 1010.8
20260507080907 54 45 7.0 10.4 0.00 0.20 0.00 89 1011.0
20260507080407 54 27 6.1 10.4 0.00 0.20 0.00 89 1011.1
20260507075906 54 24 7.0 11.3 0.00 0.20 0.00 89 1011.1
20260507075406 54 28 7.8 11.3 0.00 0.20 0.00 89 1011.0
20260507074906 54 29 7.8 11.3 0.00 0.20 0.00 89 1010.9
20260507074407 55 31 7.0 11.3 0.00 0.20 0.00 89 1011.3
20260507073906 55 36 8.7 12.2 0.00 0.20 0.00 89 1011.1
20260507073406 55 35 7.8 12.2 0.00 0.20 0.00 89 1010.9
20260507072907 55 51 8.7 12.2 0.00 0.20 0.00 89 1011.1
20260507072406 55 44 8.7 17.4 0.00 0.20 0.00 90 1011.1
20260507071906 55 27 7.8 17.4 0.00 0.20 0.00 90 1010.5
20260507071406 55 42 11.3 14.8 0.00 0.20 0.00 89 1010.4
20260507070906 55 30 9.6 13.9 0.00 0.20 0.00 90 1010.6
20260507070405 56 38 7.8 13.0 0.00 0.20 0.00 90 1010.4
20260507065906 56 53 7.0 10.4 0.00 0.20 0.00 89 1010.4
20260507065406 56 65 5.2 10.4 0.00 0.20 0.00 89 1010.4
20260507064906 56 40 7.0 10.4 0.00 0.20 0.00 89 1010.4
20260507064407 56 41 7.8 10.4 0.00 0.20 0.00 89 1010.4
20260507063906 57 49 5.2 11.3 0.00 0.20 0.00 89 1010.5
20260507063406 57 63 6.1 11.3 0.00 0.20 0.00 90 1010.5
20260507062905 57 42 7.8 11.3 0.00 0.20 0.00 89 1010.5
20260507062406 58 36 8.7 10.4 0.00 0.20 0.00 89 1010.6
20260507061906 58 40 6.1 8.7 0.00 0.20 0.00 89 1010.5
20260507061406 58 56 6.1 10.4 0.00 0.20 0.00 89 1010.5
20260507060906 58 20 7.0 10.4 0.00 0.20 0.00 89 1010.5
20260507060406 59 4 5.2 7.0 0.00 0.20 0.00 89 1010.5
20260507055906 59 52 4.3 7.0 0.00 0.20 0.00 89 1010.7
20260507055406 60 5 4.3 6.1 0.00 0.20 0.00 88 1010.6
20260507054906 60 87 1.7 5.2 0.00 0.20 0.00 89 1010.7
20260507054406 60 38 3.5 5.2 0.00 0.20 0.00 89 1010.7
20260507053906 60 17 2.6 2.6 0.00 0.20 0.00 89 1010.7
20260507053406 60 356 1.7 2.6 0.00 0.20 0.00 89 1010.8
20260507052906 60 356 0.0 2.6 0.00 0.20 0.00 89 1010.8
20260507052405 60 356 0.9 6.1 0.00 0.20 0.00 89 1010.4
20260507051907 60 335 0.0 7.8 0.00 0.20 0.00 89 1010.4
20260507051406 60 350 3.5 8.7 0.00 0.20 0.00 89 1010.4
20260507050905 60 336 4.3 10.4 0.00 0.20 0.00 89 1010.0
20260507050406 61 349 6.1 10.4 0.00 0.20 0.00 89 1010.0
20260507045906 61 0 7.8 10.4 0.00 0.20 0.00 89 1009.9
20260507045406 61 348 4.3 10.4 0.03 0.20 0.00 89 1009.6
20260507044906 61 2 4.3 12.2 0.13 0.20 0.00 89 1009.1
20260507044406 61 48 4.3 14.8 0.13 0.20 0.00 90 1008.9
20260507043906 61 83 8.7 15.6 0.13 0.20 0.00 90 1008.9
20260507043405 62 95 13.0 15.6 0.13 0.20 0.00 90 1009.2
20260507042906 62 88 7.8 12.2 0.13 0.20 0.00 90 1010.0
20260507042405 62 79 5.2 10.4 0.13 0.20 0.00 90 1010.0
20260507041906 62 58 3.5 6.1 0.13 0.20 0.00 90 1010.1
20260507041406 63 54 4.3 7.8 0.13 0.20 0.00 90 1010.5
20260507040905 63 37 3.5 7.8 0.13 0.20 0.00 89 1010.5
20260507040406 63 29 6.1 7.8 0.13 0.20 0.00 89 1010.3
20260507035906 63 40 4.3 7.0 0.13 0.20 0.20 89 1010.2
20260507035406 63 27 4.3 6.1 0.12 0.19 0.19 89 1010.8
20260507034905 63 357 5.2 6.1 0.02 0.09 0.09 89 1010.9
20260507034406 63 349 1.7 5.2 0.00 0.07 0.07 88 1010.3
20260507033905 64 34 4.3 5.2 0.00 0.07 0.07 88 1010.3
20260507033406 64 48 1.7 5.2 0.00 0.07 0.07 88 1010.5
20260507032906 64 48 1.7 7.0 0.01 0.07 0.07 88 1010.5
20260507032406 64 76 5.2 7.0 0.01 0.07 0.07 88 1010.4
20260507031906 64 58 1.7 7.0 0.02 0.07 0.07 87 1010.4
20260507031405 65 87 4.3 7.0 0.02 0.07 0.07 87 1010.3
20260507030906 65 114 3.5 6.1 0.02 0.07 0.07 87 1010.3
20260507030406 65 121 3.5 7.8 0.02 0.07 0.07 87 1010.1
20260507025905 66 68 5.2 7.8 0.02 0.07 0.07 86 1009.8
20260507025405 67 60 6.1 7.0 0.02 0.07 0.07 86 1009.9
20260507024906 67 34 2.6 4.3 0.02 0.07 0.07 86 1010.0
20260507024406 67 71 1.7 2.6 0.02 0.07 0.07 85 1009.5
20260507023905 67 68 2.6 2.6 0.02 0.07 0.07 85 1009.5
20260507023407 68 51 1.7 2.6 0.02 0.07 0.07 84 1009.5
20260507022906 68 288 0.0 1.7 0.01 0.06 0.06 83 1009.5
20260507022405 68 288 0.9 2.6 0.01 0.06 0.06 82 1009.5
20260507021906 68 288 1.7 7.0 0.00 0.05 0.05 82 1009.5
20260507021405 68 284 2.6 7.0 0.00 0.05 0.05 81 1009.5
20260507020906 68 251 6.1 7.0 0.00 0.05 0.05 81 1009.2
20260507020406 68 242 4.3 5.2 0.00 0.05 0.05 81 1009.2
20260507015905 69 214 4.3 6.1 0.00 0.05 0.05 80 1009.2
20260507015406 69 212 4.3 7.8 0.00 0.05 0.05 80 1009.2
20260507014906 69 202 2.6 7.8 0.00 0.05 0.05 80 1009.1
20260507014405 69 192 3.5 10.4 0.00 0.05 0.05 80 1009.2
20260507013905 69 195 5.2 10.4 0.00 0.05 0.05 80 1009.1
20260507013405 68 196 2.6 6.1 0.00 0.05 0.05 80 1008.8